sensor_id;sensor_type;location;lat;lon;timestamp;P1;durP1;ratioP1;P2;durP2;ratioP2
20084;SDS011;10202;48.474;9.138;2023-04-01T00:01:34;1.35;;;0.68;;
20084;SDS011;10202;48.474;9.138;2023-04-01T00:04:02;2.55;;;0.70;;
20084;SDS011;10202;48.474;9.138;2023-04-01T00:06:33;2.58;;;0.80;;
20084;SDS011;10202;48.474;9.138;2023-04-01T00:08:59;0.93;;;0.57;;
20084;SDS011;10202;48.474;9.138;2023-04-01T00:11:25;0.98;;;0.80;;
20084;SDS011;10202;48.474;9.138;2023-04-01T00:13:53;1.95;;;0.60;;
20084;SDS011;10202;48.474;9.138;2023-04-01T00:16:22;1.25;;;0.60;;
20084;SDS011;10202;48.474;9.138;2023-04-01T00:18:50;2.30;;;0.82;;
20084;SDS011;10202;48.474;9.138;2023-04-01T00:21:16;1.45;;;0.70;;
20084;SDS011;10202;48.474;9.138;2023-04-01T00:23:43;0.77;;;0.50;;
20084;SDS011;10202;48.474;9.138;2023-04-01T00:26:11;2.80;;;0.90;;
20084;SDS011;10202;48.474;9.138;2023-04-01T00:28:37;1.63;;;0.57;;
20084;SDS011;10202;48.474;9.138;2023-04-01T00:31:10;0.95;;;0.68;;
20084;SDS011;10202;48.474;9.138;2023-04-01T00:33:37;2.22;;;0.70;;
20084;SDS011;10202;48.474;9.138;2023-04-01T00:36:10;2.00;;;0.82;;
20084;SDS011;10202;48.474;9.138;2023-04-01T00:38:44;3.05;;;0.88;;
20084;SDS011;10202;48.474;9.138;2023-04-01T00:41:12;1.42;;;0.52;;
20084;SDS011;10202;48.474;9.138;2023-04-01T00:43:45;2.20;;;0.55;;
20084;SDS011;10202;48.474;9.138;2023-04-01T00:46:14;6.65;;;0.80;;
20084;SDS011;10202;48.474;9.138;2023-04-01T00:48:41;0.88;;;0.50;;
20084;SDS011;10202;48.474;9.138;2023-04-01T00:51:17;2.47;;;0.60;;
20084;SDS011;10202;48.474;9.138;2023-04-01T00:53:48;1.08;;;0.50;;
20084;SDS011;10202;48.474;9.138;2023-04-01T00:56:19;2.13;;;0.60;;
20084;SDS011;10202;48.474;9.138;2023-04-01T00:58:57;0.75;;;0.60;;
20084;SDS011;10202;48.474;9.138;2023-04-01T01:01:36;4.05;;;0.60;;
20084;SDS011;10202;48.474;9.138;2023-04-01T01:04:04;1.75;;;0.70;;
20084;SDS011;10202;48.474;9.138;2023-04-01T01:35:33;1.20;;;0.60;;
20084;SDS011;10202;48.474;9.138;2023-04-01T01:38:10;0.45;;;0.40;;
20084;SDS011;10202;48.474;9.138;2023-04-01T01:40:44;3.90;;;0.60;;
20084;SDS011;10202;48.474;9.138;2023-04-01T01:43:16;0.93;;;0.40;;
20084;SDS011;10202;48.474;9.138;2023-04-01T01:45:46;0.40;;;0.40;;
20084;SDS011;10202;48.474;9.138;2023-04-01T01:48:19;0.52;;;0.50;;
20084;SDS011;10202;48.474;9.138;2023-04-01T01:50:45;0.30;;;0.30;;
20084;SDS011;10202;48.474;9.138;2023-04-01T01:53:16;0.40;;;0.40;;
20084;SDS011;10202;48.474;9.138;2023-04-01T01:55:45;0.40;;;0.40;;
20084;SDS011;10202;48.474;9.138;2023-04-01T02:01:23;1.55;;;0.40;;
20084;SDS011;10202;48.474;9.138;2023-04-01T02:03:56;1.27;;;0.30;;
20084;SDS011;10202;48.474;9.138;2023-04-01T02:06:23;0.50;;;0.50;;
20084;SDS011;10202;48.474;9.138;2023-04-01T02:08:56;0.47;;;0.40;;
20084;SDS011;10202;48.474;9.138;2023-04-01T02:11:33;0.30;;;0.30;;
20084;SDS011;10202;48.474;9.138;2023-04-01T02:17:02;0.45;;;0.38;;
20084;SDS011;10202;48.474;9.138;2023-04-01T02:19:34;1.48;;;0.50;;
20084;SDS011;10202;48.474;9.138;2023-04-01T02:22:04;0.50;;;0.40;;
20084;SDS011;10202;48.474;9.138;2023-04-01T02:24:33;0.40;;;0.40;;
20084;SDS011;10202;48.474;9.138;2023-04-01T02:27:00;0.52;;;0.30;;
20084;SDS011;10202;48.474;9.138;2023-04-01T02:29:27;0.50;;;0.40;;
20084;SDS011;10202;48.474;9.138;2023-04-01T02:31:55;0.55;;;0.43;;
20084;SDS011;10202;48.474;9.138;2023-04-01T02:34:21;0.30;;;0.30;;
20084;SDS011;10202;48.474;9.138;2023-04-01T02:36:47;2.08;;;0.40;;
20084;SDS011;10202;48.474;9.138;2023-04-01T02:39:14;0.38;;;0.38;;
20084;SDS011;10202;48.474;9.138;2023-04-01T02:41:41;0.63;;;0.35;;
20084;SDS011;10202;48.474;9.138;2023-04-01T02:44:12;0.30;;;0.30;;
20084;SDS011;10202;48.474;9.138;2023-04-01T02:46:40;2.03;;;0.40;;
20084;SDS011;10202;48.474;9.138;2023-04-01T02:49:09;0.40;;;0.40;;
20084;SDS011;10202;48.474;9.138;2023-04-01T02:51:37;0.40;;;0.32;;
20084;SDS011;10202;48.474;9.138;2023-04-01T02:54:06;0.65;;;0.40;;
20084;SDS011;10202;48.474;9.138;2023-04-01T02:56:34;0.40;;;0.40;;
20084;SDS011;10202;48.474;9.138;2023-04-01T02:59:00;0.82;;;0.40;;
20084;SDS011;10202;48.474;9.138;2023-04-01T03:01:26;0.30;;;0.30;;
20084;SDS011;10202;48.474;9.138;2023-04-01T03:03:59;0.60;;;0.30;;
20084;SDS011;10202;48.474;9.138;2023-04-01T03:06:24;0.40;;;0.40;;
20084;SDS011;10202;48.474;9.138;2023-04-01T03:08:55;0.30;;;0.30;;
20084;SDS011;10202;48.474;9.138;2023-04-01T03:11:23;0.77;;;0.40;;
20084;SDS011;10202;48.474;9.138;2023-04-01T03:13:48;0.63;;;0.40;;
20084;SDS011;10202;48.474;9.138;2023-04-01T03:16:14;1.40;;;0.40;;
20084;SDS011;10202;48.474;9.138;2023-04-01T03:18:40;0.63;;;0.30;;
20084;SDS011;10202;48.474;9.138;2023-04-01T03:21:12;0.30;;;0.30;;
20084;SDS011;10202;48.474;9.138;2023-04-01T03:23:39;0.47;;;0.40;;
20084;SDS011;10202;48.474;9.138;2023-04-01T03:26:07;0.30;;;0.30;;
20084;SDS011;10202;48.474;9.138;2023-04-01T03:28:35;0.45;;;0.40;;
20084;SDS011;10202;48.474;9.138;2023-04-01T03:31:03;2.05;;;0.40;;
20084;SDS011;10202;48.474;9.138;2023-04-01T03:33:36;0.30;;;0.30;;
20084;SDS011;10202;48.474;9.138;2023-04-01T03:36:02;0.68;;;0.40;;
20084;SDS011;10202;48.474;9.138;2023-04-01T03:38:34;0.30;;;0.30;;
20084;SDS011;10202;48.474;9.138;2023-04-01T03:41:02;0.43;;;0.40;;
20084;SDS011;10202;48.474;9.138;2023-04-01T03:43:30;0.30;;;0.30;;
20084;SDS011;10202;48.474;9.138;2023-04-01T03:45:55;0.40;;;0.40;;
20084;SDS011;10202;48.474;9.138;2023-04-01T03:48:25;1.27;;;0.38;;
20084;SDS011;10202;48.474;9.138;2023-04-01T03:50:53;0.30;;;0.30;;
20084;SDS011;10202;48.474;9.138;2023-04-01T03:53:20;0.30;;;0.30;;
20084;SDS011;10202;48.474;9.138;2023-04-01T03:55:49;0.40;;;0.40;;
20084;SDS011;10202;48.474;9.138;2023-04-01T03:58:16;0.40;;;0.40;;
20084;SDS011;10202;48.474;9.138;2023-04-01T04:00:47;0.75;;;0.40;;
20084;SDS011;10202;48.474;9.138;2023-04-01T04:03:17;2.97;;;0.50;;
20084;SDS011;10202;48.474;9.138;2023-04-01T04:05:47;0.95;;;0.40;;
20084;SDS011;10202;48.474;9.138;2023-04-01T04:08:14;1.55;;;0.60;;
20084;SDS011;10202;48.474;9.138;2023-04-01T04:10:43;0.40;;;0.40;;
20084;SDS011;10202;48.474;9.138;2023-04-01T04:13:12;1.35;;;0.40;;
20084;SDS011;10202;48.474;9.138;2023-04-01T04:15:47;1.10;;;0.63;;
20084;SDS011;10202;48.474;9.138;2023-04-01T04:18:15;2.13;;;0.60;;
20084;SDS011;10202;48.474;9.138;2023-04-01T04:20:46;2.25;;;0.75;;
20084;SDS011;10202;48.474;9.138;2023-04-01T04:23:18;3.00;;;0.60;;
20084;SDS011;10202;48.474;9.138;2023-04-01T04:25:53;1.55;;;0.57;;
20084;SDS011;10202;48.474;9.138;2023-04-01T04:28:23;2.45;;;1.25;;
20084;SDS011;10202;48.474;9.138;2023-04-01T04:30:57;1.10;;;0.60;;
20084;SDS011;10202;48.474;9.138;2023-04-01T04:33:26;2.75;;;0.82;;
20084;SDS011;10202;48.474;9.138;2023-04-01T04:35:55;3.55;;;1.10;;
20084;SDS011;10202;48.474;9.138;2023-04-01T04:38:27;2.25;;;1.05;;
20084;SDS011;10202;48.474;9.138;2023-04-01T04:40:55;2.20;;;0.85;;
20084;SDS011;10202;48.474;9.138;2023-04-01T04:43:22;3.90;;;0.88;;
20084;SDS011;10202;48.474;9.138;2023-04-01T04:45:50;4.72;;;0.80;;
20084;SDS011;10202;48.474;9.138;2023-04-01T04:48:18;0.57;;;0.50;;
20084;SDS011;10202;48.474;9.138;2023-04-01T04:50:47;1.10;;;0.50;;
20084;SDS011;10202;48.474;9.138;2023-04-01T04:53:18;0.82;;;0.60;;
20084;SDS011;10202;48.474;9.138;2023-04-01T04:55:45;1.38;;;0.55;;
20084;SDS011;10202;48.474;9.138;2023-04-01T04:58:39;1.23;;;0.70;;
20084;SDS011;10202;48.474;9.138;2023-04-01T05:01:10;0.95;;;0.50;;
20084;SDS011;10202;48.474;9.138;2023-04-01T05:03:39;0.85;;;0.60;;
20084;SDS011;10202;48.474;9.138;2023-04-01T05:06:05;0.75;;;0.50;;
20084;SDS011;10202;48.474;9.138;2023-04-01T05:08:32;1.67;;;0.57;;
20084;SDS011;10202;48.474;9.138;2023-04-01T05:11:01;1.13;;;0.50;;
20084;SDS011;10202;48.474;9.138;2023-04-01T05:13:32;0.60;;;0.60;;
20084;SDS011;10202;48.474;9.138;2023-04-01T05:16:00;0.40;;;0.40;;
20084;SDS011;10202;48.474;9.138;2023-04-01T05:18:31;1.80;;;0.45;;
20084;SDS011;10202;48.474;9.138;2023-04-01T05:20:56;0.40;;;0.40;;
20084;SDS011;10202;48.474;9.138;2023-04-01T05:23:24;0.40;;;0.40;;
20084;SDS011;10202;48.474;9.138;2023-04-01T05:25:52;1.10;;;0.47;;
20084;SDS011;10202;48.474;9.138;2023-04-01T05:28:21;0.40;;;0.40;;
20084;SDS011;10202;48.474;9.138;2023-04-01T05:30:47;0.40;;;0.40;;
20084;SDS011;10202;48.474;9.138;2023-04-01T05:33:24;0.40;;;0.40;;
20084;SDS011;10202;48.474;9.138;2023-04-01T05:35:52;2.08;;;0.40;;
20084;SDS011;10202;48.474;9.138;2023-04-01T05:38:21;0.55;;;0.40;;
20084;SDS011;10202;48.474;9.138;2023-04-01T05:40:49;0.50;;;0.50;;
20084;SDS011;10202;48.474;9.138;2023-04-01T05:43:20;0.40;;;0.40;;
20084;SDS011;10202;48.474;9.138;2023-04-01T05:45:48;2.20;;;0.52;;
20084;SDS011;10202;48.474;9.138;2023-04-01T05:48:33;0.65;;;0.47;;
20084;SDS011;10202;48.474;9.138;2023-04-01T05:51:04;1.83;;;0.68;;
20084;SDS011;10202;48.474;9.138;2023-04-01T05:53:30;2.28;;;0.60;;
20084;SDS011;10202;48.474;9.138;2023-04-01T05:56:01;2.92;;;0.80;;
20084;SDS011;10202;48.474;9.138;2023-04-01T05:58:35;1.23;;;0.90;;
20084;SDS011;10202;48.474;9.138;2023-04-01T06:01:10;0.70;;;0.70;;
20084;SDS011;10202;48.474;9.138;2023-04-01T06:03:36;0.77;;;0.77;;
20084;SDS011;10202;48.474;9.138;2023-04-01T06:06:02;2.08;;;0.90;;
20084;SDS011;10202;48.474;9.138;2023-04-01T06:08:34;3.22;;;0.80;;
20084;SDS011;10202;48.474;9.138;2023-04-01T06:28:57;1.13;;;0.50;;
20084;SDS011;10202;48.474;9.138;2023-04-01T06:40:55;1.85;;;0.55;;
20084;SDS011;10202;48.474;9.138;2023-04-01T06:46:59;1.27;;;0.50;;
20084;SDS011;10202;48.474;9.138;2023-04-01T06:57:02;1.23;;;0.40;;
20084;SDS011;10202;48.474;9.138;2023-04-01T06:59:47;1.42;;;0.50;;
20084;SDS011;10202;48.474;9.138;2023-04-01T07:02:22;1.02;;;0.52;;
20084;SDS011;10202;48.474;9.138;2023-04-01T07:05:12;1.27;;;0.50;;
20084;SDS011;10202;48.474;9.138;2023-04-01T07:07:50;1.00;;;0.70;;
20084;SDS011;10202;48.474;9.138;2023-04-01T07:10:35;0.88;;;0.40;;
20084;SDS011;10202;48.474;9.138;2023-04-01T07:13:54;1.58;;;0.70;;
20084;SDS011;10202;48.474;9.138;2023-04-01T07:19:21;2.05;;;0.80;;
20084;SDS011;10202;48.474;9.138;2023-04-01T07:22:28;2.75;;;1.00;;
20084;SDS011;10202;48.474;9.138;2023-04-01T07:25:18;2.45;;;0.90;;
20084;SDS011;10202;48.474;9.138;2023-04-01T07:28:03;0.75;;;0.73;;
20084;SDS011;10202;48.474;9.138;2023-04-01T07:31:02;2.20;;;0.70;;
20084;SDS011;10202;48.474;9.138;2023-04-01T07:33:37;1.77;;;0.60;;
20084;SDS011;10202;48.474;9.138;2023-04-01T07:36:31;1.52;;;0.95;;
20084;SDS011;10202;48.474;9.138;2023-04-01T07:46:11;2.47;;;1.20;;
20084;SDS011;10202;48.474;9.138;2023-04-01T07:49:10;1.35;;;0.70;;
20084;SDS011;10202;48.474;9.138;2023-04-01T07:57:22;1.60;;;0.75;;
20084;SDS011;10202;48.474;9.138;2023-04-01T08:03:14;0.50;;;0.50;;
20084;SDS011;10202;48.474;9.138;2023-04-01T08:05:55;0.55;;;0.40;;
20084;SDS011;10202;48.474;9.138;2023-04-01T08:14:56;0.80;;;0.70;;
20084;SDS011;10202;48.474;9.138;2023-04-01T08:23:33;0.55;;;0.50;;
20084;SDS011;10202;48.474;9.138;2023-04-01T08:28:47;6.15;;;0.73;;
20084;SDS011;10202;48.474;9.138;2023-04-01T08:31:34;0.88;;;0.60;;
20084;SDS011;10202;48.474;9.138;2023-04-01T08:34:14;3.38;;;0.50;;
20084;SDS011;10202;48.474;9.138;2023-04-01T08:36:50;4.00;;;0.80;;
20084;SDS011;10202;48.474;9.138;2023-04-01T08:39:24;5.75;;;0.70;;
20084;SDS011;10202;48.474;9.138;2023-04-01T08:51:14;1.13;;;0.60;;
20084;SDS011;10202;48.474;9.138;2023-04-01T08:57:07;0.57;;;0.50;;
20084;SDS011;10202;48.474;9.138;2023-04-01T09:21:17;0.90;;;0.88;;
20084;SDS011;10202;48.474;9.138;2023-04-01T09:45:41;0.40;;;0.40;;
20084;SDS011;10202;48.474;9.138;2023-04-01T09:48:42;0.52;;;0.52;;
20084;SDS011;10202;48.474;9.138;2023-04-01T11:19:43;0.65;;;0.60;;
20084;SDS011;10202;48.474;9.138;2023-04-01T11:22:36;1.95;;;0.75;;
20084;SDS011;10202;48.474;9.138;2023-04-01T11:31:23;7.22;;;0.73;;
20084;SDS011;10202;48.474;9.138;2023-04-01T11:37:57;1.70;;;0.70;;
20084;SDS011;10202;48.474;9.138;2023-04-01T11:44:16;1.00;;;0.60;;
20084;SDS011;10202;48.474;9.138;2023-04-01T11:50:21;0.60;;;0.60;;
20084;SDS011;10202;48.474;9.138;2023-04-01T11:56:31;0.77;;;0.77;;
20084;SDS011;10202;48.474;9.138;2023-04-01T12:33:25;0.73;;;0.60;;
20084;SDS011;10202;48.474;9.138;2023-04-01T13:02:00;0.82;;;0.57;;
20084;SDS011;10202;48.474;9.138;2023-04-01T13:10:36;0.70;;;0.65;;
20084;SDS011;10202;48.474;9.138;2023-04-01T13:16:27;0.77;;;0.50;;
20084;SDS011;10202;48.474;9.138;2023-04-01T13:29:59;0.70;;;0.50;;
20084;SDS011;10202;48.474;9.138;2023-04-01T13:32:56;1.17;;;0.40;;
20084;SDS011;10202;48.474;9.138;2023-04-01T13:35:52;1.10;;;0.68;;
20084;SDS011;10202;48.474;9.138;2023-04-01T14:15:58;0.40;;;0.40;;
20084;SDS011;10202;48.474;9.138;2023-04-01T14:37:29;0.60;;;0.60;;
20084;SDS011;10202;48.474;9.138;2023-04-01T14:46:04;0.75;;;0.52;;
20084;SDS011;10202;48.474;9.138;2023-04-01T14:48:32;0.60;;;0.60;;
20084;SDS011;10202;48.474;9.138;2023-04-01T14:51:09;0.73;;;0.50;;
20084;SDS011;10202;48.474;9.138;2023-04-01T14:53:44;5.20;;;0.68;;
20084;SDS011;10202;48.474;9.138;2023-04-01T14:56:34;0.88;;;0.63;;
20084;SDS011;10202;48.474;9.138;2023-04-01T14:59:07;1.83;;;0.73;;
20084;SDS011;10202;48.474;9.138;2023-04-01T15:08:00;0.85;;;0.65;;
20084;SDS011;10202;48.474;9.138;2023-04-01T15:10:47;0.65;;;0.65;;
20084;SDS011;10202;48.474;9.138;2023-04-01T15:38:48;0.93;;;0.68;;
20084;SDS011;10202;48.474;9.138;2023-04-01T15:41:43;2.72;;;1.10;;
20084;SDS011;10202;48.474;9.138;2023-04-01T15:44:42;3.97;;;1.10;;
20084;SDS011;10202;48.474;9.138;2023-04-01T15:52:48;0.85;;;0.65;;
20084;SDS011;10202;48.474;9.138;2023-04-01T15:58:06;2.38;;;1.10;;
20084;SDS011;10202;48.474;9.138;2023-04-01T16:04:17;1.40;;;0.98;;
20084;SDS011;10202;48.474;9.138;2023-04-01T16:13:02;4.03;;;2.40;;
20084;SDS011;10202;48.474;9.138;2023-04-01T16:16:00;6.85;;;4.32;;
20084;SDS011;10202;48.474;9.138;2023-04-01T16:22:14;4.03;;;2.30;;
20084;SDS011;10202;48.474;9.138;2023-04-01T16:33:56;3.25;;;1.60;;
20084;SDS011;10202;48.474;9.138;2023-04-01T16:37:04;3.55;;;2.08;;
20084;SDS011;10202;48.474;9.138;2023-04-01T16:39:44;2.35;;;0.63;;
20084;SDS011;10202;48.474;9.138;2023-04-01T16:45:35;6.55;;;4.38;;
20084;SDS011;10202;48.474;9.138;2023-04-01T16:48:25;1.25;;;0.93;;
20084;SDS011;10202;48.474;9.138;2023-04-01T16:51:13;0.85;;;0.77;;
20084;SDS011;10202;48.474;9.138;2023-04-01T16:56:27;0.93;;;0.75;;
20084;SDS011;10202;48.474;9.138;2023-04-01T16:59:18;1.30;;;0.90;;
20084;SDS011;10202;48.474;9.138;2023-04-01T17:02:04;0.93;;;0.90;;
20084;SDS011;10202;48.474;9.138;2023-04-01T17:04:42;3.75;;;1.50;;
20084;SDS011;10202;48.474;9.138;2023-04-01T17:07:21;2.08;;;1.00;;
20084;SDS011;10202;48.474;9.138;2023-04-01T17:18:59;2.38;;;1.63;;
20084;SDS011;10202;48.474;9.138;2023-04-01T17:21:56;2.47;;;1.45;;
20084;SDS011;10202;48.474;9.138;2023-04-01T17:41:46;2.45;;;1.27;;
20084;SDS011;10202;48.474;9.138;2023-04-01T18:09:56;1.30;;;1.20;;
20084;SDS011;10202;48.474;9.138;2023-04-01T18:15:10;1.67;;;0.90;;
20084;SDS011;10202;48.474;9.138;2023-04-01T18:18:23;3.53;;;0.98;;
20084;SDS011;10202;48.474;9.138;2023-04-01T18:26:59;1.83;;;1.20;;
20084;SDS011;10202;48.474;9.138;2023-04-01T18:35:34;1.35;;;1.10;;
20084;SDS011;10202;48.474;9.138;2023-04-01T18:41:49;1.20;;;1.00;;
20084;SDS011;10202;48.474;9.138;2023-04-01T18:50:26;1.92;;;1.05;;
20084;SDS011;10202;48.474;9.138;2023-04-01T18:56:30;2.05;;;1.45;;
20084;SDS011;10202;48.474;9.138;2023-04-01T18:59:21;0.95;;;0.77;;
20084;SDS011;10202;48.474;9.138;2023-04-01T19:07:54;0.70;;;0.70;;
20084;SDS011;10202;48.474;9.138;2023-04-01T19:31:30;3.42;;;2.33;;
20084;SDS011;10202;48.474;9.138;2023-04-01T19:40:42;1.75;;;1.40;;
20084;SDS011;10202;48.474;9.138;2023-04-01T19:46:53;5.38;;;1.25;;
20084;SDS011;10202;48.474;9.138;2023-04-01T19:52:32;1.30;;;1.20;;
20084;SDS011;10202;48.474;9.138;2023-04-01T20:01:04;1.60;;;1.02;;
20084;SDS011;10202;48.474;9.138;2023-04-01T20:03:54;1.35;;;1.00;;
20084;SDS011;10202;48.474;9.138;2023-04-01T20:11:58;1.30;;;1.20;;
20084;SDS011;10202;48.474;9.138;2023-04-01T20:15:02;1.15;;;1.02;;
20084;SDS011;10202;48.474;9.138;2023-04-01T20:17:54;2.22;;;1.15;;
20084;SDS011;10202;48.474;9.138;2023-04-01T20:20:25;1.67;;;1.23;;
20084;SDS011;10202;48.474;9.138;2023-04-01T20:28:32;2.72;;;1.48;;
20084;SDS011;10202;48.474;9.138;2023-04-01T20:40:46;2.47;;;1.42;;
20084;SDS011;10202;48.474;9.138;2023-04-01T20:43:22;2.38;;;1.38;;
20084;SDS011;10202;48.474;9.138;2023-04-01T20:46:14;2.33;;;1.38;;
20084;SDS011;10202;48.474;9.138;2023-04-01T20:52:35;2.03;;;1.83;;
20084;SDS011;10202;48.474;9.138;2023-04-01T20:54:55;2.08;;;1.70;;
20084;SDS011;10202;48.474;9.138;2023-04-01T20:58:02;3.05;;;2.00;;
20084;SDS011;10202;48.474;9.138;2023-04-01T21:09:33;1.75;;;1.50;;
20084;SDS011;10202;48.474;9.138;2023-04-01T21:12:20;2.03;;;1.60;;
20084;SDS011;10202;48.474;9.138;2023-04-01T21:27:03;3.15;;;1.90;;
20084;SDS011;10202;48.474;9.138;2023-04-01T21:29:59;2.28;;;1.70;;
20084;SDS011;10202;48.474;9.138;2023-04-01T21:33:13;3.30;;;1.65;;
20084;SDS011;10202;48.474;9.138;2023-04-01T21:36:09;2.60;;;1.17;;
20084;SDS011;10202;48.474;9.138;2023-04-01T21:39:05;2.55;;;1.42;;
20084;SDS011;10202;48.474;9.138;2023-04-01T21:51:04;5.82;;;1.10;;
20084;SDS011;10202;48.474;9.138;2023-04-01T22:09:17;2.17;;;1.02;;
20084;SDS011;10202;48.474;9.138;2023-04-01T22:14:47;1.40;;;0.98;;
20084;SDS011;10202;48.474;9.138;2023-04-01T22:17:35;0.88;;;0.68;;
20084;SDS011;10202;48.474;9.138;2023-04-01T22:26:28;0.60;;;0.60;;
20084;SDS011;10202;48.474;9.138;2023-04-01T22:31:57;0.68;;;0.68;;
20084;SDS011;10202;48.474;9.138;2023-04-01T22:34:37;0.65;;;0.65;;
20084;SDS011;10202;48.474;9.138;2023-04-01T22:51:38;0.50;;;0.50;;
20084;SDS011;10202;48.474;9.138;2023-04-01T22:54:14;0.88;;;0.70;;
20084;SDS011;10202;48.474;9.138;2023-04-01T23:02:06;0.55;;;0.55;;
20084;SDS011;10202;48.474;9.138;2023-04-01T23:05:03;0.82;;;0.52;;
20084;SDS011;10202;48.474;9.138;2023-04-01T23:10:47;1.58;;;0.60;;
20084;SDS011;10202;48.474;9.138;2023-04-01T23:13:18;0.52;;;0.52;;
20084;SDS011;10202;48.474;9.138;2023-04-01T23:15:50;1.58;;;0.70;;
20084;SDS011;10202;48.474;9.138;2023-04-01T23:23:33;1.38;;;0.88;;
20084;SDS011;10202;48.474;9.138;2023-04-01T23:26:32;1.38;;;0.60;;
20084;SDS011;10202;48.474;9.138;2023-04-01T23:29:02;1.10;;;0.60;;
20084;SDS011;10202;48.474;9.138;2023-04-01T23:36:42;0.57;;;0.57;;
20084;SDS011;10202;48.474;9.138;2023-04-01T23:41:55;1.15;;;0.70;;
20084;SDS011;10202;48.474;9.138;2023-04-01T23:44:32;0.98;;;0.70;;
20084;SDS011;10202;48.474;9.138;2023-04-01T23:47:00;1.25;;;0.73;;
20084;SDS011;10202;48.474;9.138;2023-04-01T23:49:33;0.98;;;0.80;;
20084;SDS011;10202;48.474;9.138;2023-04-01T23:52:10;0.68;;;0.68;;
20084;SDS011;10202;48.474;9.138;2023-04-01T23:55:01;2.47;;;0.70;;
20084;SDS011;10202;48.474;9.138;2023-04-01T23:57:39;0.88;;;0.73;;
